Time;durP1;ratioP1;P1;durP2;ratioP2;P2;SDS_P1;SDS_P2;PMS_P1;PMS_P2;Temp;Humidity;BMP_temperature;BMP_pressure;BME280_temperature;BME280_humidity;BME280_pressure;Samples;Min_cycle;Max_cycle;Signal;HPM_P1;HPM_P2
2021/01/10 00:00:11;;;;;;;22.13;14.27;;;;;;;;;;10116670;28;20508;-63
2021/01/10 00:05:10;;;;;;;25.48;16.27;;;;;;;;;;10110980;28;20516;-63
2021/01/10 00:10:10;;;;;;;21.73;14.65;;;;;;;;;;10113304;28;20082;-63
2021/01/10 00:15:10;;;;;;;21.67;13.02;;;;;;;;;;10112154;28;20112;-63
2021/01/10 00:20:09;;;;;;;21.48;13.63;;;;;;;;;;10107758;28;20074;-62
2021/01/10 00:25:07;;;;;;;20.60;13.63;;;;;;;;;;10112134;28;20070;-63
2021/01/10 00:30:07;;;;;;;23.52;15.10;;;;;;;;;;10115057;28;20082;-63
2021/01/10 00:35:05;;;;;;;18.35;13.63;;;;;;;;;;10114545;28;20079;-60
2021/01/10 00:40:02;;;;;;;17.23;13.07;;;;;;;;;;10114788;28;20086;-63
2021/01/10 00:45:00;;;;;;;17.85;13.05;;;;;;;;;;10113646;28;20086;-62
2021/01/10 00:49:58;;;;;;;18.23;13.13;;;;;;;;;;10115053;28;20085;-64
2021/01/10 00:54:56;;;;;;;20.55;16.08;;;;;;;;;;10097151;28;20090;-63
2021/01/10 00:59:53;;;;;;;15.82;12.10;;;;;;;;;;10114736;28;20090;-62
2021/01/10 01:04:51;;;;;;;15.45;11.95;;;;;;;;;;10096882;28;20085;-62
2021/01/10 01:09:50;;;;;;;14.52;10.82;;;;;;;;;;10096379;28;20473;-63
2021/01/10 01:14:55;;;;;;;15.57;13.20;;;;;;;;;;10113997;28;20517;-63
2021/01/10 01:19:52;;;;;;;13.90;10.48;;;;;;;;;;10114319;28;20082;-62
2021/01/10 01:24:50;;;;;;;12.52;9.88;;;;;;;;;;10113941;28;20074;-63
2021/01/10 01:29:47;;;;;;;13.95;10.15;;;;;;;;;;10113529;28;20127;-63
2021/01/10 01:34:45;;;;;;;12.32;9.88;;;;;;;;;;10113536;28;20077;-63
2021/01/10 01:39:42;;;;;;;12.18;9.63;;;;;;;;;;10113991;28;20535;-63
2021/01/10 01:44:40;;;;;;;12.85;10.57;;;;;;;;;;10116739;28;20074;-63
2021/01/10 01:49:37;;;;;;;10.05;8.48;;;;;;;;;;10121922;28;20077;-62
2021/01/10 01:54:35;;;;;;;13.23;9.50;;;;;;;;;;10121899;28;20078;-62
2021/01/10 01:59:32;;;;;;;8.90;7.38;;;;;;;;;;10121746;28;20073;-63
2021/01/10 02:04:32;;;;;;;11.25;8.15;;;;;;;;;;10120879;28;20514;-62
2021/01/10 02:09:30;;;;;;;16.88;13.30;;;;;;;;;;10120954;28;20097;-63
2021/01/10 02:14:29;;;;;;;14.15;10.73;;;;;;;;;;10120909;28;20077;-62
2021/01/10 02:19:31;;;;;;;11.77;8.85;;;;;;;;;;10120539;28;20535;-62
2021/01/10 02:24:29;;;;;;;12.80;9.77;;;;;;;;;;10120105;28;20117;-61
2021/01/10 02:29:27;;;;;;;10.98;8.75;;;;;;;;;;10119563;28;20082;-64
2021/01/10 02:34:24;;;;;;;11.52;8.70;;;;;;;;;;10119962;28;20082;-63
2021/01/10 02:39:25;;;;;;;9.32;7.68;;;;;;;;;;10119006;28;20085;-63
2021/01/10 02:44:25;;;;;;;10.05;7.63;;;;;;;;;;10115662;28;20089;-62
2021/01/10 02:49:23;;;;;;;12.27;9.63;;;;;;;;;;10119777;28;20489;-63
2021/01/10 02:54:20;;;;;;;12.45;8.55;;;;;;;;;;10119325;28;20480;-63
2021/01/10 02:59:20;;;;;;;9.70;8.43;;;;;;;;;;10120195;28;20174;-62
2021/01/10 03:04:18;;;;;;;10.02;8.45;;;;;;;;;;10119912;28;20474;-62
2021/01/10 03:09:16;;;;;;;14.00;11.27;;;;;;;;;;10118708;28;20086;-61
2021/01/10 03:14:13;;;;;;;19.65;11.60;;;;;;;;;;10119833;28;20085;-63
2021/01/10 03:19:11;;;;;;;32.35;16.00;;;;;;;;;;10119337;28;20137;-63
2021/01/10 03:24:09;;;;;;;18.95;12.52;;;;;;;;;;10118685;28;20070;-62
2021/01/10 03:29:08;;;;;;;12.25;8.65;;;;;;;;;;10117897;28;20078;-62
2021/01/10 03:34:05;;;;;;;14.13;10.63;;;;;;;;;;10117013;28;20070;-63
2021/01/10 03:39:03;;;;;;;16.42;10.35;;;;;;;;;;10117808;28;20547;-63
2021/01/10 03:44:01;;;;;;;15.70;9.90;;;;;;;;;;10118356;28;20050;-62
2021/01/10 03:48:58;;;;;;;13.18;10.13;;;;;;;;;;10117941;28;20476;-62
2021/01/10 03:53:55;;;;;;;12.73;10.02;;;;;;;;;;10118121;28;20102;-62
2021/01/10 03:58:53;;;;;;;12.65;10.73;;;;;;;;;;10117618;28;20104;-63
2021/01/10 04:03:51;;;;;;;12.18;9.45;;;;;;;;;;10116875;28;20075;-62
2021/01/10 04:08:48;;;;;;;13.80;10.60;;;;;;;;;;10116796;28;20516;-63
2021/01/10 04:13:46;;;;;;;11.27;9.38;;;;;;;;;;10117508;28;20074;-63
2021/01/10 04:18:43;;;;;;;13.02;9.32;;;;;;;;;;10115887;28;20082;-63
2021/01/10 04:23:41;;;;;;;14.57;11.18;;;;;;;;;;10117363;28;20514;-62
2021/01/10 04:28:39;;;;;;;13.65;10.18;;;;;;;;;;10116361;28;20078;-63
2021/01/10 04:33:36;;;;;;;13.93;11.23;;;;;;;;;;10116202;28;20085;-63
2021/01/10 04:38:33;;;;;;;14.43;10.75;;;;;;;;;;10115380;28;20078;-63
2021/01/10 04:43:33;;;;;;;13.00;10.32;;;;;;;;;;10115198;28;20084;-63
2021/01/10 04:48:31;;;;;;;14.70;10.52;;;;;;;;;;10115745;28;20089;-61
2021/01/10 04:53:30;;;;;;;12.73;9.75;;;;;;;;;;10115571;28;20074;-63
2021/01/10 04:58:28;;;;;;;11.38;8.75;;;;;;;;;;10114100;28;20071;-61
2021/01/10 05:03:30;;;;;;;20.67;13.45;;;;;;;;;;10113605;28;20082;-63
2021/01/10 05:08:27;;;;;;;23.63;14.02;;;;;;;;;;10114028;28;20082;-62
2021/01/10 05:13:25;;;;;;;20.77;13.93;;;;;;;;;;10114350;28;20131;-62
2021/01/10 05:18:22;;;;;;;18.05;13.40;;;;;;;;;;10114522;28;20090;-61
2021/01/10 05:23:23;;;;;;;19.33;13.48;;;;;;;;;;10115266;28;20050;-62
2021/01/10 05:28:22;;;;;;;18.33;12.98;;;;;;;;;;10115100;28;20842;-62
2021/01/10 05:33:19;;;;;;;21.42;15.48;;;;;;;;;;10113845;28;20078;-62
2021/01/10 05:38:28;;;;;;;18.85;14.95;;;;;;;;;;10114478;28;20090;-63
2021/01/10 05:43:26;;;;;;;16.40;13.27;;;;;;;;;;10114026;28;20070;-62
2021/01/10 05:48:23;;;;;;;17.75;13.15;;;;;;;;;;10114349;28;20153;-63
2021/01/10 05:53:21;;;;;;;18.52;14.18;;;;;;;;;;10114739;28;20429;-62
2021/01/10 05:58:20;;;;;;;21.58;16.13;;;;;;;;;;10112265;28;20070;-63
2021/01/10 06:03:18;;;;;;;25.00;14.98;;;;;;;;;;10113872;28;20074;-62
2021/01/10 06:08:24;;;;;;;29.80;21.80;;;;;;;;;;10111231;28;20082;-62
2021/01/10 06:13:23;;;;;;;41.58;30.55;;;;;;;;;;10111525;28;20077;-62
2021/01/10 06:18:22;;;;;;;22.67;17.25;;;;;;;;;;10112221;28;20074;-63
2021/01/10 06:23:27;;;;;;;21.55;15.63;;;;;;;;;;10113169;28;20528;-63
2021/01/10 06:28:26;;;;;;;;;;;;;;;;;;10114439;28;20078;-63
2021/01/10 06:33:27;;;;;;;22.55;16.92;;;;;;;;;;10120484;28;19961;-63
2021/01/10 06:38:28;;;;;;;30.92;21.10;;;;;;;;;;10121066;28;20082;-63
2021/01/10 06:43:26;;;;;;;40.80;31.42;;;;;;;;;;10120729;28;20081;-63
2021/01/10 06:48:24;;;;;;;27.08;20.30;;;;;;;;;;10120111;28;20082;-64
2021/01/10 06:53:23;;;;;;;49.65;23.15;;;;;;;;;;10118711;28;20085;-62
2021/01/10 06:58:20;;;;;;;20.60;16.65;;;;;;;;;;10117125;28;21000;-62
2021/01/10 07:03:17;;;;;;;17.95;14.68;;;;;;;;;;10118965;28;20093;-62
2021/01/10 07:08:31;;;;;;;25.52;18.55;;;;;;;;;;10120114;28;20532;-62
2021/01/10 07:13:28;;;;;;;32.17;21.70;;;;;;;;;;10118988;28;20051;-62
2021/01/10 07:18:26;;;;;;;28.90;18.77;;;;;;;;;;10119840;28;20093;-61
2021/01/10 07:23:33;;;;;;;27.60;21.20;;;;;;;;;;10119938;28;20058;-62
2021/01/10 07:28:44;;;;;;;42.80;26.33;;;;;;;;;;10119872;28;20156;-63
2021/01/10 07:33:41;;;;;;;21.95;16.80;;;;;;;;;;10115799;28;20089;-63
2021/01/10 07:38:41;;;;;;;17.35;14.85;;;;;;;;;;10118102;28;20078;-62
2021/01/10 07:43:51;;;;;;;18.35;13.80;;;;;;;;;;10109276;28;20058;-62
2021/01/10 07:48:49;;;;;;;21.63;16.40;;;;;;;;;;10114134;28;20070;-62
2021/01/10 07:53:49;;;;;;;20.23;15.93;;;;;;;;;;10115222;28;20077;-63
2021/01/10 07:58:46;;;;;;;21.88;18.17;;;;;;;;;;10097183;28;20086;-62
2021/01/10 08:03:44;;;;;;;18.48;15.35;;;;;;;;;;10116914;28;20149;-62
2021/01/10 08:08:42;;;;;;;27.45;19.92;;;;;;;;;;10118206;28;20090;-62
2021/01/10 08:13:41;;;;;;;47.65;34.88;;;;;;;;;;10118308;28;20046;-63
2021/01/10 08:18:40;;;;;;;44.08;26.02;;;;;;;;;;10118082;28;20078;-63
2021/01/10 08:23:38;;;;;;;45.67;25.98;;;;;;;;;;10117892;28;20119;-64
2021/01/10 08:28:36;;;;;;;53.95;32.92;;;;;;;;;;10117623;28;20501;-63
2021/01/10 08:33:34;;;;;;;72.55;35.78;;;;;;;;;;10117093;28;20078;-62
2021/01/10 08:38:32;;;;;;;53.08;34.50;;;;;;;;;;10117205;28;20079;-62
2021/01/10 08:43:29;;;;;;;86.32;50.35;;;;;;;;;;10117106;28;20085;-62
2021/01/10 08:48:29;;;;;;;82.18;50.85;;;;;;;;;;10116922;28;20109;-62
2021/01/10 08:53:40;;;;;;;74.67;41.20;;;;;;;;;;10116843;28;20085;-63
2021/01/10 08:58:38;;;;;;;52.27;33.13;;;;;;;;;;10115916;28;20497;-62
2021/01/10 09:03:35;;;;;;;30.38;25.10;;;;;;;;;;10115700;28;20051;-62
2021/01/10 09:08:36;;;;;;;39.85;29.55;;;;;;;;;;10116140;28;20476;-62
2021/01/10 09:13:37;;;;;;;74.88;46.47;;;;;;;;;;10116413;28;20077;-62
2021/01/10 09:18:37;;;;;;;44.13;31.95;;;;;;;;;;10116063;28;20086;-64
2021/01/10 09:23:35;;;;;;;62.63;46.83;;;;;;;;;;10115630;28;20043;-63
2021/01/10 09:28:34;;;;;;;62.20;40.85;;;;;;;;;;10115841;28;20086;-63
2021/01/10 09:33:32;;;;;;;47.92;31.95;;;;;;;;;;10115645;28;20543;-63
2021/01/10 09:38:31;;;;;;;37.95;27.50;;;;;;;;;;10115332;28;20094;-62
2021/01/10 09:43:39;;;;;;;27.80;23.23;;;;;;;;;;10110584;28;20067;-61
2021/01/10 09:48:37;;;;;;;28.33;22.38;;;;;;;;;;10112072;28;20485;-62
2021/01/10 09:53:34;;;;;;;23.08;17.98;;;;;;;;;;10109452;28;20129;-63
2021/01/10 09:58:33;;;;;;;44.97;25.50;;;;;;;;;;10114637;28;20058;-63
2021/01/10 10:03:31;;;;;;;54.67;33.03;;;;;;;;;;10115567;28;20066;-63
2021/01/10 10:08:28;;;;;;;29.40;20.40;;;;;;;;;;10122152;28;20520;-63
2021/01/10 10:13:27;;;;;;;36.15;28.90;;;;;;;;;;10122567;28;20423;-63
2021/01/10 10:18:27;;;;;;;29.55;23.45;;;;;;;;;;10120344;28;20078;-63
2021/01/10 10:23:26;;;;;;;29.75;22.65;;;;;;;;;;10120294;28;20077;-61
2021/01/10 10:28:24;;;;;;;33.85;25.25;;;;;;;;;;10101334;28;20086;-64
2021/01/10 10:33:22;;;;;;;32.03;23.30;;;;;;;;;;10119583;28;20075;-63
2021/01/10 10:38:19;;;;;;;36.10;24.83;;;;;;;;;;10118450;28;20086;-62
2021/01/10 10:43:17;;;;;;;56.92;39.63;;;;;;;;;;10121453;28;20428;-63
2021/01/10 10:48:15;;;;;;;37.97;26.77;;;;;;;;;;10120624;28;20113;-63
2021/01/10 10:53:12;;;;;;;25.45;17.73;;;;;;;;;;10120960;28;20045;-63
2021/01/10 10:58:09;;;;;;;23.73;19.10;;;;;;;;;;10120459;28;20078;-64
2021/01/10 11:03:08;;;;;;;27.55;20.23;;;;;;;;;;10110499;28;20484;-60
2021/01/10 11:08:07;;;;;;;20.58;15.48;;;;;;;;;;10097686;28;20085;-61
2021/01/10 11:13:05;;;;;;;16.45;12.25;;;;;;;;;;10115149;28;20082;-63
2021/01/10 11:18:04;;;;;;;26.60;16.90;;;;;;;;;;10119030;28;20074;-60
2021/01/10 11:23:03;;;;;;;27.15;20.20;;;;;;;;;;10102373;28;20061;-64
2021/01/10 11:28:00;;;;;;;25.50;17.35;;;;;;;;;;10119662;28;20086;-63
2021/01/10 11:32:57;;;;;;;45.03;24.65;;;;;;;;;;10119846;28;20047;-62
2021/01/10 11:37:55;;;;;;;34.03;21.33;;;;;;;;;;10119581;28;20059;-62
2021/01/10 11:42:53;;;;;;;27.63;18.52;;;;;;;;;;10118974;28;20050;-64
2021/01/10 11:47:50;;;;;;;25.75;17.52;;;;;;;;;;10119058;28;20089;-64
2021/01/10 11:52:47;;;;;;;30.80;19.90;;;;;;;;;;10118888;28;20089;-62
2021/01/10 11:57:45;;;;;;;29.38;21.05;;;;;;;;;;10117956;28;20042;-64
2021/01/10 12:02:43;;;;;;;22.45;16.20;;;;;;;;;;10118473;28;20070;-62
2021/01/10 12:07:40;;;;;;;46.15;29.95;;;;;;;;;;10118430;28;20043;-63
2021/01/10 12:12:37;;;;;;;32.30;24.38;;;;;;;;;;10117960;28;20090;-63
2021/01/10 12:17:35;;;;;;;46.75;29.63;;;;;;;;;;10117828;28;20067;-63
2021/01/10 12:22:33;;;;;;;24.73;18.48;;;;;;;;;;10117737;28;20093;-61
2021/01/10 12:27:30;;;;;;;29.30;22.67;;;;;;;;;;10117109;28;20043;-62
2021/01/10 12:32:33;;;;;;;39.05;29.40;;;;;;;;;;10117189;28;20083;-64
2021/01/10 12:37:30;;;;;;;29.77;24.42;;;;;;;;;;10116860;28;20420;-62
2021/01/10 12:42:30;;;;;;;62.13;45.33;;;;;;;;;;10116991;28;20066;-62
2021/01/10 12:47:27;;;;;;;47.75;30.52;;;;;;;;;;10116923;28;20050;-62
2021/01/10 12:52:25;;;;;;;27.25;22.35;;;;;;;;;;10116470;28;20086;-63
2021/01/10 12:57:24;;;;;;;27.05;20.35;;;;;;;;;;10116533;28;20045;-64
2021/01/10 13:02:23;;;;;;;35.70;25.45;;;;;;;;;;10116364;28;20047;-61
2021/01/10 13:07:21;;;;;;;26.77;20.33;;;;;;;;;;10115930;28;20075;-63
2021/01/10 13:12:18;;;;;;;31.40;24.02;;;;;;;;;;10115985;28;20093;-62
2021/01/10 13:17:16;;;;;;;27.48;20.02;;;;;;;;;;10115941;28;20073;-62
2021/01/10 13:22:15;;;;;;;25.02;18.83;;;;;;;;;;10097415;28;20516;-64
2021/01/10 13:27:12;;;;;;;33.80;26.77;;;;;;;;;;10076210;28;20055;-62
2021/01/10 13:32:10;;;;;;;39.83;30.90;;;;;;;;;;10075930;28;20482;-61
2021/01/10 13:37:08;;;;;;;39.00;31.73;;;;;;;;;;10076347;28;20054;-63
2021/01/10 13:42:07;;;;;;;41.38;31.92;;;;;;;;;;10084206;28;20049;-63
2021/01/10 13:47:05;;;;;;;28.30;19.85;;;;;;;;;;10110338;28;20097;-63
2021/01/10 13:52:02;;;;;;;30.38;20.55;;;;;;;;;;10110867;28;20086;-63
2021/01/10 13:57:01;;;;;;;25.50;20.02;;;;;;;;;;10111423;28;20070;-63
2021/01/10 14:01:59;;;;;;;23.60;18.23;;;;;;;;;;10114743;28;20528;-63
2021/01/10 14:07:12;;;;;;;29.92;23.05;;;;;;;;;;10114673;28;20047;-63
2021/01/10 14:12:12;;;;;;;34.97;26.38;;;;;;;;;;10114044;28;20098;-62
2021/01/10 14:17:15;;;;;;;32.38;25.23;;;;;;;;;;10114277;28;20086;-64
2021/01/10 14:22:13;;;;;;;32.90;25.17;;;;;;;;;;10114605;28;20047;-63
2021/01/10 14:27:10;;;;;;;51.05;33.63;;;;;;;;;;10114346;28;20577;-64
2021/01/10 14:32:07;;;;;;;40.08;26.65;;;;;;;;;;10114157;28;20505;-63
2021/01/10 14:37:06;;;;;;;51.22;33.47;;;;;;;;;;10114459;28;20079;-63
2021/01/10 14:42:03;;;;;;;44.97;30.60;;;;;;;;;;10113959;28;20050;-63
2021/01/10 14:47:01;;;;;;;49.65;31.25;;;;;;;;;;10114060;28;20093;-62
2021/01/10 14:51:58;;;;;;;50.25;32.67;;;;;;;;;;10116622;28;20078;-61
2021/01/10 14:56:57;;;;;;;27.58;20.08;;;;;;;;;;10120542;28;20519;-63
2021/01/10 15:01:54;;;;;;;28.10;20.02;;;;;;;;;;10121325;28;20070;-64
2021/01/10 15:06:55;;;;;;;40.55;25.00;;;;;;;;;;10120974;28;20074;-63
2021/01/10 15:11:53;;;;;;;48.35;29.35;;;;;;;;;;10120357;28;20473;-64
2021/01/10 15:16:51;;;;;;;50.88;35.72;;;;;;;;;;10120410;28;20124;-64
2021/01/10 15:21:49;;;;;;;33.58;27.00;;;;;;;;;;10121020;28;20053;-65
2021/01/10 15:26:46;;;;;;;40.97;27.67;;;;;;;;;;10120712;28;20528;-65
2021/01/10 15:31:44;;;;;;;36.78;24.75;;;;;;;;;;10120079;28;20086;-63
2021/01/10 15:36:45;;;;;;;33.88;23.08;;;;;;;;;;10119704;28;20047;-63
2021/01/10 15:41:44;;;;;;;35.03;24.15;;;;;;;;;;10117416;28;20531;-64
2021/01/10 15:46:41;;;;;;;31.33;21.75;;;;;;;;;;10118515;28;20077;-65
2021/01/10 15:51:39;;;;;;;33.33;19.58;;;;;;;;;;10116259;28;20532;-63
2021/01/10 15:56:37;;;;;;;25.83;18.13;;;;;;;;;;10119632;28;20047;-64
2021/01/10 16:01:35;;;;;;;27.83;20.85;;;;;;;;;;10118602;28;20408;-63
2021/01/10 16:06:33;;;;;;;25.13;19.33;;;;;;;;;;10119154;28;20070;-62
2021/01/10 16:11:30;;;;;;;26.83;20.80;;;;;;;;;;10117298;28;20093;-65
2021/01/10 16:16:29;;;;;;;34.42;23.52;;;;;;;;;;10118907;28;20042;-63
2021/01/10 16:21:26;;;;;;;59.42;41.10;;;;;;;;;;10118663;28;20049;-63
2021/01/10 16:26:24;;;;;;;39.00;28.80;;;;;;;;;;10118192;28;20057;-63
2021/01/10 16:31:44;;;;;;;47.55;34.58;;;;;;;;;;10116450;28;20493;-63
2021/01/10 16:36:42;;;;;;;35.80;26.30;;;;;;;;;;10117733;28;20542;-62
2021/01/10 16:41:41;;;;;;;37.70;27.52;;;;;;;;;;10115383;28;20085;-62
2021/01/10 16:46:39;;;;;;;29.05;20.75;;;;;;;;;;10111531;28;20531;-64
2021/01/10 16:51:37;;;;;;;28.23;18.40;;;;;;;;;;10116859;28;20074;-63
2021/01/10 16:56:35;;;;;;;25.55;18.40;;;;;;;;;;10115836;28;20054;-65
2021/01/10 17:01:32;;;;;;;26.77;18.98;;;;;;;;;;10115843;28;20530;-64
2021/01/10 17:06:31;;;;;;;28.50;21.23;;;;;;;;;;10114235;28;20070;-65
2021/01/10 17:11:34;;;;;;;22.17;17.08;;;;;;;;;;10114273;28;20090;-63
2021/01/10 17:16:32;;;;;;;26.63;21.33;;;;;;;;;;10113057;28;20058;-63
2021/01/10 17:21:29;;;;;;;28.50;20.85;;;;;;;;;;10076405;28;20098;-61
2021/01/10 17:26:29;;;;;;;29.13;22.40;;;;;;;;;;10098112;28;20082;-63
2021/01/10 17:31:26;;;;;;;21.65;17.40;;;;;;;;;;10115998;28;20105;-63
2021/01/10 17:36:24;;;;;;;19.38;16.48;;;;;;;;;;10115892;28;20350;-62
2021/01/10 17:41:22;;;;;;;26.77;21.13;;;;;;;;;;10115963;28;20057;-63
2021/01/10 17:46:21;;;;;;;20.33;14.98;;;;;;;;;;10115447;28;20394;-63
2021/01/10 17:51:19;;;;;;;22.25;16.40;;;;;;;;;;10113901;28;20500;-62
2021/01/10 17:56:20;;;;;;;17.90;14.23;;;;;;;;;;10097055;28;20043;-61
2021/01/10 18:01:18;;;;;;;28.45;18.90;;;;;;;;;;10088205;28;20087;-63
2021/01/10 18:06:16;;;;;;;34.65;24.30;;;;;;;;;;10101528;28;20398;-63
2021/01/10 18:11:20;;;;;;;33.13;21.75;;;;;;;;;;10111820;28;20093;-61
2021/01/10 18:16:17;;;;;;;23.17;18.15;;;;;;;;;;10095627;28;20094;-63
2021/01/10 18:21:15;;;;;;;17.65;12.45;;;;;;;;;;10113805;28;20089;-65
2021/01/10 18:26:13;;;;;;;26.27;17.20;;;;;;;;;;10116703;28;20412;-64
2021/01/10 18:31:12;;;;;;;18.55;12.88;;;;;;;;;;10120834;28;20078;-65
2021/01/10 18:36:13;;;;;;;21.83;15.27;;;;;;;;;;10122791;28;20078;-64
2021/01/10 18:41:11;;;;;;;17.17;13.43;;;;;;;;;;10122344;28;20055;-62
2021/01/10 18:46:10;;;;;;;15.75;11.85;;;;;;;;;;10103712;28;20055;-64
2021/01/10 18:51:13;;;;;;;19.17;13.20;;;;;;;;;;10103973;28;20082;-63
2021/01/10 18:56:10;;;;;;;23.08;16.60;;;;;;;;;;10121129;28;20085;-62
2021/01/10 19:01:08;;;;;;;20.35;14.98;;;;;;;;;;10121513;28;20175;-62
2021/01/10 19:06:08;;;;;;;17.35;13.13;;;;;;;;;;10102077;28;20056;-64
2021/01/10 19:11:06;;;;;;;21.52;13.80;;;;;;;;;;10120159;28;20082;-63
2021/01/10 19:16:06;;;;;;;19.52;12.32;;;;;;;;;;10120277;28;20516;-64
2021/01/10 19:21:04;;;;;;;23.23;15.50;;;;;;;;;;10120173;28;20043;-64
2021/01/10 19:26:04;;;;;;;27.30;18.02;;;;;;;;;;10120749;28;20042;-64
2021/01/10 19:31:02;;;;;;;22.15;15.40;;;;;;;;;;10119622;28;20508;-63
2021/01/10 19:36:00;;;;;;;16.13;12.75;;;;;;;;;;10119266;28;20043;-64
2021/01/10 19:40:58;;;;;;;13.68;10.70;;;;;;;;;;10118290;28;20058;-62
2021/01/10 19:45:58;;;;;;;20.83;15.05;;;;;;;;;;10101182;28;20436;-64
2021/01/10 19:50:56;;;;;;;15.63;11.73;;;;;;;;;;10119289;28;20480;-63
2021/01/10 19:55:53;;;;;;;13.07;9.15;;;;;;;;;;10119751;28;20047;-65
2021/01/10 20:00:50;;;;;;;13.38;10.70;;;;;;;;;;10119581;28;20035;-65
2021/01/10 20:05:50;;;;;;;22.67;14.82;;;;;;;;;;10119202;28;20042;-62
2021/01/10 20:10:50;;;;;;;13.27;10.05;;;;;;;;;;10099702;28;20063;-61
2021/01/10 20:15:52;;;;;;;13.07;9.73;;;;;;;;;;10118899;28;20489;-62
2021/01/10 20:20:51;;;;;;;10.27;8.02;;;;;;;;;;10093545;28;20508;-64
2021/01/10 20:25:48;;;;;;;14.82;9.77;;;;;;;;;;10114174;28;20082;-62
2021/01/10 20:30:45;;;;;;;15.57;11.30;;;;;;;;;;10118046;28;20105;-65
2021/01/10 20:35:45;;;;;;;18.83;13.10;;;;;;;;;;10114520;28;20082;-63
2021/01/10 20:40:43;;;;;;;16.40;11.43;;;;;;;;;;10115389;28;20500;-63
2021/01/10 20:45:40;;;;;;;10.27;8.32;;;;;;;;;;10116937;28;20456;-62
2021/01/10 20:50:39;;;;;;;9.52;6.95;;;;;;;;;;10098954;28;20062;-65
2021/01/10 20:55:37;;;;;;;14.27;9.85;;;;;;;;;;10117284;28;20046;-65
2021/01/10 21:00:35;;;;;;;11.52;8.27;;;;;;;;;;10116890;28;20049;-64
2021/01/10 21:05:33;;;;;;;16.65;11.70;;;;;;;;;;10117010;28;20070;-64
2021/01/10 21:10:31;;;;;;;18.20;11.10;;;;;;;;;;10115655;28;20094;-64
2021/01/10 21:15:29;;;;;;;16.35;11.82;;;;;;;;;;10114995;28;20047;-65
2021/01/10 21:20:27;;;;;;;9.52;5.68;;;;;;;;;;10116234;28;20090;-65
2021/01/10 21:25:24;;;;;;;9.15;6.93;;;;;;;;;;10115967;28;20050;-65
2021/01/10 21:30:22;;;;;;;9.43;7.88;;;;;;;;;;10115349;28;20070;-63
2021/01/10 21:35:22;;;;;;;4.47;3.97;;;;;;;;;;10115544;28;20043;-64
2021/01/10 21:40:20;;;;;;;6.03;4.68;;;;;;;;;;10115836;28;20050;-66
2021/01/10 21:45:17;;;;;;;6.40;5.18;;;;;;;;;;10115096;28;20710;-64
2021/01/10 21:50:15;;;;;;;6.25;5.40;;;;;;;;;;10115741;28;20086;-66
2021/01/10 21:55:12;;;;;;;6.40;5.70;;;;;;;;;;10115295;28;20051;-65
2021/01/10 22:00:11;;;;;;;7.53;5.10;;;;;;;;;;10114836;28;20074;-66
2021/01/10 22:05:10;;;;;;;6.60;4.15;;;;;;;;;;10123222;28;20448;-66
2021/01/10 22:10:12;;;;;;;6.13;4.22;;;;;;;;;;10122352;28;20497;-65
2021/01/10 22:15:10;;;;;;;6.90;4.85;;;;;;;;;;10122420;28;20086;-65
2021/01/10 22:20:09;;;;;;;6.70;4.90;;;;;;;;;;10122033;28;20428;-65
2021/01/10 22:25:07;;;;;;;8.55;5.07;;;;;;;;;;10122815;28;20529;-65
2021/01/10 22:30:05;;;;;;;7.60;5.40;;;;;;;;;;10122544;28;20043;-65
2021/01/10 22:35:03;;;;;;;5.40;4.13;;;;;;;;;;10121590;28;20054;-65
2021/01/10 22:40:02;;;;;;;6.50;4.18;;;;;;;;;;10122230;28;20078;-65
2021/01/10 22:44:59;;;;;;;8.50;5.38;;;;;;;;;;10121336;28;20078;-65
2021/01/10 22:49:56;;;;;;;6.93;5.30;;;;;;;;;;10121432;28;20577;-65
2021/01/10 22:54:54;;;;;;;7.35;5.65;;;;;;;;;;10121284;28;20069;-65
2021/01/10 22:59:52;;;;;;;7.72;5.32;;;;;;;;;;10120470;28;20062;-65
2021/01/10 23:04:49;;;;;;;6.63;4.43;;;;;;;;;;10121068;28;20062;-65
2021/01/10 23:09:48;;;;;;;10.13;7.05;;;;;;;;;;10120657;28;20436;-66
2021/01/10 23:14:45;;;;;;;6.70;4.93;;;;;;;;;;10120732;28;20082;-64
2021/01/10 23:19:43;;;;;;;5.53;4.10;;;;;;;;;;10120689;28;20105;-65
2021/01/10 23:24:41;;;;;;;8.48;5.47;;;;;;;;;;10119386;28;20079;-64
2021/01/10 23:29:39;;;;;;;10.77;7.60;;;;;;;;;;10119919;28;20058;-64
2021/01/10 23:34:36;;;;;;;10.00;5.85;;;;;;;;;;10119254;28;20093;-65
2021/01/10 23:39:40;;;;;;;5.68;4.22;;;;;;;;;;10118689;28;20287;-66
2021/01/10 23:44:37;;;;;;;6.03;4.40;;;;;;;;;;10119183;28;20078;-65
2021/01/10 23:49:34;;;;;;;4.65;3.63;;;;;;;;;;10119212;28;20523;-67
2021/01/10 23:54:33;;;;;;;5.10;4.22;;;;;;;;;;10119396;28;20078;-66
2021/01/10 23:59:31;;;;;;;7.15;3.70;;;;;;;;;;10119353;28;20484;-66
